sensor_id;sensor_type;location;lat;lon;timestamp;temperature;humidity
54642;DHT22;40536;53.194;5.728;2022-10-16T00:00:30;12.60;99.90
54642;DHT22;40536;53.194;5.728;2022-10-16T00:02:56;12.60;99.90
54642;DHT22;40536;53.194;5.728;2022-10-16T00:05:22;12.60;99.90
54642;DHT22;40536;53.194;5.728;2022-10-16T00:07:48;12.60;99.90
54642;DHT22;40536;53.194;5.728;2022-10-16T00:10:13;12.60;99.90
54642;DHT22;40536;53.194;5.728;2022-10-16T00:12:39;12.60;99.90
54642;DHT22;40536;53.194;5.728;2022-10-16T00:15:05;12.60;99.90
54642;DHT22;40536;53.194;5.728;2022-10-16T00:17:31;12.60;99.90
54642;DHT22;40536;53.194;5.728;2022-10-16T00:19:56;12.60;99.90
54642;DHT22;40536;53.194;5.728;2022-10-16T00:22:22;12.60;99.90
54642;DHT22;40536;53.194;5.728;2022-10-16T00:24:48;12.60;99.90
54642;DHT22;40536;53.194;5.728;2022-10-16T00:27:14;12.60;99.90
54642;DHT22;40536;53.194;5.728;2022-10-16T00:29:39;12.60;99.90
54642;DHT22;40536;53.194;5.728;2022-10-16T00:32:05;12.60;99.90
54642;DHT22;40536;53.194;5.728;2022-10-16T00:34:31;12.60;99.90
54642;DHT22;40536;53.194;5.728;2022-10-16T00:36:56;12.60;99.90
54642;DHT22;40536;53.194;5.728;2022-10-16T00:39:22;12.60;99.90
54642;DHT22;40536;53.194;5.728;2022-10-16T00:41:49;12.60;99.90
54642;DHT22;40536;53.194;5.728;2022-10-16T00:47:17;12.60;99.90
54642;DHT22;40536;53.194;5.728;2022-10-16T00:49:44;12.60;99.90
54642;DHT22;40536;53.194;5.728;2022-10-16T00:52:10;12.60;99.90
54642;DHT22;40536;53.194;5.728;2022-10-16T00:54:37;12.70;99.90
54642;DHT22;40536;53.194;5.728;2022-10-16T00:57:05;12.70;99.90
54642;DHT22;40536;53.194;5.728;2022-10-16T00:59:34;12.70;99.90
54642;DHT22;40536;53.194;5.728;2022-10-16T01:02:01;12.70;99.90
54642;DHT22;40536;53.194;5.728;2022-10-16T01:04:32;12.80;99.90
54642;DHT22;40536;53.194;5.728;2022-10-16T01:10:30;12.80;99.90
54642;DHT22;40536;53.194;5.728;2022-10-16T01:15:36;12.90;99.90
54642;DHT22;40536;53.194;5.728;2022-10-16T01:21:08;13.00;99.90
54642;DHT22;40536;53.194;5.728;2022-10-16T01:28:55;13.10;99.90
54642;DHT22;40536;53.194;5.728;2022-10-16T01:31:26;13.10;99.90
54642;DHT22;40536;53.194;5.728;2022-10-16T01:34:02;13.10;99.90
54642;DHT22;40536;53.194;5.728;2022-10-16T01:37:07;13.20;99.90
54642;DHT22;40536;53.194;5.728;2022-10-16T01:39:29;13.10;99.90
54642;DHT22;40536;53.194;5.728;2022-10-16T01:42:08;13.10;99.90
54642;DHT22;40536;53.194;5.728;2022-10-16T01:44:35;13.10;99.90
54642;DHT22;40536;53.194;5.728;2022-10-16T01:47:03;13.10;99.90
54642;DHT22;40536;53.194;5.728;2022-10-16T01:49:35;13.10;99.90
54642;DHT22;40536;53.194;5.728;2022-10-16T01:52:05;13.10;99.90
54642;DHT22;40536;53.194;5.728;2022-10-16T01:54:34;13.10;99.90
54642;DHT22;40536;53.194;5.728;2022-10-16T01:57:01;13.10;99.90
54642;DHT22;40536;53.194;5.728;2022-10-16T01:59:31;13.10;99.90
54642;DHT22;40536;53.194;5.728;2022-10-16T02:02:06;13.10;99.90
54642;DHT22;40536;53.194;5.728;2022-10-16T02:04:38;13.10;99.90
54642;DHT22;40536;53.194;5.728;2022-10-16T02:07:05;13.00;99.90
54642;DHT22;40536;53.194;5.728;2022-10-16T02:09:33;12.90;99.90
54642;DHT22;40536;53.194;5.728;2022-10-16T02:12:03;12.90;99.90
54642;DHT22;40536;53.194;5.728;2022-10-16T02:14:32;12.90;99.90
54642;DHT22;40536;53.194;5.728;2022-10-16T02:16:58;12.80;99.90
54642;DHT22;40536;53.194;5.728;2022-10-16T02:19:24;12.80;99.90
54642;DHT22;40536;53.194;5.728;2022-10-16T02:21:57;12.80;99.90
54642;DHT22;40536;53.194;5.728;2022-10-16T02:24:44;12.70;99.90
54642;DHT22;40536;53.194;5.728;2022-10-16T02:27:15;12.70;99.90
54642;DHT22;40536;53.194;5.728;2022-10-16T02:29:47;12.70;99.90
54642;DHT22;40536;53.194;5.728;2022-10-16T02:32:22;12.70;99.90
54642;DHT22;40536;53.194;5.728;2022-10-16T02:34:49;12.60;99.90
54642;DHT22;40536;53.194;5.728;2022-10-16T02:37:17;12.60;99.90
54642;DHT22;40536;53.194;5.728;2022-10-16T02:39:44;12.60;99.90
54642;DHT22;40536;53.194;5.728;2022-10-16T02:42:14;12.50;99.90
54642;DHT22;40536;53.194;5.728;2022-10-16T02:44:40;12.60;99.90
54642;DHT22;40536;53.194;5.728;2022-10-16T02:47:06;12.60;99.90
54642;DHT22;40536;53.194;5.728;2022-10-16T02:49:32;12.50;99.90
54642;DHT22;40536;53.194;5.728;2022-10-16T02:51:57;12.30;99.90
54642;DHT22;40536;53.194;5.728;2022-10-16T02:54:23;12.40;99.90
54642;DHT22;40536;53.194;5.728;2022-10-16T02:56:49;12.30;99.90
54642;DHT22;40536;53.194;5.728;2022-10-16T02:59:15;12.30;99.90
54642;DHT22;40536;53.194;5.728;2022-10-16T03:01:41;12.30;99.90
54642;DHT22;40536;53.194;5.728;2022-10-16T03:04:06;12.10;99.90
54642;DHT22;40536;53.194;5.728;2022-10-16T03:06:32;12.10;99.90
54642;DHT22;40536;53.194;5.728;2022-10-16T03:08:58;12.10;99.90
54642;DHT22;40536;53.194;5.728;2022-10-16T03:11:23;12.40;99.90
54642;DHT22;40536;53.194;5.728;2022-10-16T03:13:49;12.10;99.90
54642;DHT22;40536;53.194;5.728;2022-10-16T03:16:15;12.10;99.90
54642;DHT22;40536;53.194;5.728;2022-10-16T03:18:40;12.10;99.90
54642;DHT22;40536;53.194;5.728;2022-10-16T03:21:06;12.10;99.90
54642;DHT22;40536;53.194;5.728;2022-10-16T03:23:31;12.10;99.90
54642;DHT22;40536;53.194;5.728;2022-10-16T03:25:57;12.00;99.90
54642;DHT22;40536;53.194;5.728;2022-10-16T03:28:23;12.00;99.90
54642;DHT22;40536;53.194;5.728;2022-10-16T03:30:48;12.00;99.90
54642;DHT22;40536;53.194;5.728;2022-10-16T03:33:14;12.10;99.90
54642;DHT22;40536;53.194;5.728;2022-10-16T03:35:39;12.10;99.90
54642;DHT22;40536;53.194;5.728;2022-10-16T03:38:05;12.10;99.90
54642;DHT22;40536;53.194;5.728;2022-10-16T03:40:31;12.10;99.90
54642;DHT22;40536;53.194;5.728;2022-10-16T03:42:59;12.10;99.90
54642;DHT22;40536;53.194;5.728;2022-10-16T03:45:25;12.10;99.90
54642;DHT22;40536;53.194;5.728;2022-10-16T03:47:52;12.10;99.90
54642;DHT22;40536;53.194;5.728;2022-10-16T03:50:17;12.20;99.90
54642;DHT22;40536;53.194;5.728;2022-10-16T03:52:43;12.20;99.90
54642;DHT22;40536;53.194;5.728;2022-10-16T03:55:09;12.20;99.90
54642;DHT22;40536;53.194;5.728;2022-10-16T03:57:35;12.20;99.90
54642;DHT22;40536;53.194;5.728;2022-10-16T04:00:00;12.40;99.90
54642;DHT22;40536;53.194;5.728;2022-10-16T04:02:26;12.40;99.90
54642;DHT22;40536;53.194;5.728;2022-10-16T04:04:52;12.40;99.90
54642;DHT22;40536;53.194;5.728;2022-10-16T04:07:18;12.60;99.90
54642;DHT22;40536;53.194;5.728;2022-10-16T04:09:44;12.60;99.90
54642;DHT22;40536;53.194;5.728;2022-10-16T04:12:09;12.60;99.90
54642;DHT22;40536;53.194;5.728;2022-10-16T04:14:35;12.60;99.90
54642;DHT22;40536;53.194;5.728;2022-10-16T04:17:00;12.60;99.90
54642;DHT22;40536;53.194;5.728;2022-10-16T04:19:26;12.60;99.90
54642;DHT22;40536;53.194;5.728;2022-10-16T04:21:52;12.60;99.90
54642;DHT22;40536;53.194;5.728;2022-10-16T04:24:17;12.60;99.90
54642;DHT22;40536;53.194;5.728;2022-10-16T04:26:43;12.70;99.90
54642;DHT22;40536;53.194;5.728;2022-10-16T04:29:08;12.60;99.90
54642;DHT22;40536;53.194;5.728;2022-10-16T04:31:34;12.70;99.90
54642;DHT22;40536;53.194;5.728;2022-10-16T04:34:00;12.60;99.90
54642;DHT22;40536;53.194;5.728;2022-10-16T04:36:25;12.60;99.90
54642;DHT22;40536;53.194;5.728;2022-10-16T04:38:51;12.60;99.90
54642;DHT22;40536;53.194;5.728;2022-10-16T04:41:16;12.60;99.90
54642;DHT22;40536;53.194;5.728;2022-10-16T04:43:42;12.50;99.90
54642;DHT22;40536;53.194;5.728;2022-10-16T04:46:08;12.50;99.90
54642;DHT22;40536;53.194;5.728;2022-10-16T04:48:35;12.50;99.90
54642;DHT22;40536;53.194;5.728;2022-10-16T04:51:01;12.50;99.90
54642;DHT22;40536;53.194;5.728;2022-10-16T04:53:26;12.50;99.90
54642;DHT22;40536;53.194;5.728;2022-10-16T04:55:52;12.50;99.90
54642;DHT22;40536;53.194;5.728;2022-10-16T04:58:18;12.50;99.90
54642;DHT22;40536;53.194;5.728;2022-10-16T05:00:44;12.50;99.90
54642;DHT22;40536;53.194;5.728;2022-10-16T05:03:12;12.40;99.90
54642;DHT22;40536;53.194;5.728;2022-10-16T05:05:42;12.40;99.90
54642;DHT22;40536;53.194;5.728;2022-10-16T05:08:08;12.40;99.90
54642;DHT22;40536;53.194;5.728;2022-10-16T05:10:34;12.40;99.90
54642;DHT22;40536;53.194;5.728;2022-10-16T05:13:00;12.40;99.90
54642;DHT22;40536;53.194;5.728;2022-10-16T05:15:25;12.40;99.90
54642;DHT22;40536;53.194;5.728;2022-10-16T05:17:55;12.40;99.90
54642;DHT22;40536;53.194;5.728;2022-10-16T05:20:21;12.40;99.90
54642;DHT22;40536;53.194;5.728;2022-10-16T05:22:47;12.40;99.90
54642;DHT22;40536;53.194;5.728;2022-10-16T05:25:13;12.40;99.90
54642;DHT22;40536;53.194;5.728;2022-10-16T05:27:38;12.40;99.90
54642;DHT22;40536;53.194;5.728;2022-10-16T05:30:04;12.50;99.90
54642;DHT22;40536;53.194;5.728;2022-10-16T05:32:30;12.40;99.90
54642;DHT22;40536;53.194;5.728;2022-10-16T05:34:56;12.40;99.90
54642;DHT22;40536;53.194;5.728;2022-10-16T05:37:21;12.40;99.90
54642;DHT22;40536;53.194;5.728;2022-10-16T05:39:47;12.60;99.90
54642;DHT22;40536;53.194;5.728;2022-10-16T05:42:12;12.30;99.90
54642;DHT22;40536;53.194;5.728;2022-10-16T05:44:38;12.20;99.90
54642;DHT22;40536;53.194;5.728;2022-10-16T05:47:04;12.30;99.90
54642;DHT22;40536;53.194;5.728;2022-10-16T05:49:30;12.20;99.90
54642;DHT22;40536;53.194;5.728;2022-10-16T05:51:55;12.20;99.90
54642;DHT22;40536;53.194;5.728;2022-10-16T05:54:21;12.20;99.90
54642;DHT22;40536;53.194;5.728;2022-10-16T05:56:46;12.20;99.90
54642;DHT22;40536;53.194;5.728;2022-10-16T05:59:12;12.20;99.90
54642;DHT22;40536;53.194;5.728;2022-10-16T06:01:38;12.20;99.90
54642;DHT22;40536;53.194;5.728;2022-10-16T06:04:03;12.20;99.90
54642;DHT22;40536;53.194;5.728;2022-10-16T06:06:29;12.20;99.90
54642;DHT22;40536;53.194;5.728;2022-10-16T06:08:56;12.20;99.90
54642;DHT22;40536;53.194;5.728;2022-10-16T06:11:25;12.20;99.90
54642;DHT22;40536;53.194;5.728;2022-10-16T06:13:53;12.20;99.90
54642;DHT22;40536;53.194;5.728;2022-10-16T06:16:19;12.10;99.90
54642;DHT22;40536;53.194;5.728;2022-10-16T06:18:46;12.10;99.90
54642;DHT22;40536;53.194;5.728;2022-10-16T06:21:14;12.10;99.90
54642;DHT22;40536;53.194;5.728;2022-10-16T06:23:41;12.10;99.90
54642;DHT22;40536;53.194;5.728;2022-10-16T06:26:13;12.20;99.90
54642;DHT22;40536;53.194;5.728;2022-10-16T06:28:39;12.20;99.90
54642;DHT22;40536;53.194;5.728;2022-10-16T06:31:06;12.20;99.90
54642;DHT22;40536;53.194;5.728;2022-10-16T06:33:32;12.30;99.90
54642;DHT22;40536;53.194;5.728;2022-10-16T06:38:28;12.40;99.90
54642;DHT22;40536;53.194;5.728;2022-10-16T06:40:54;12.40;99.90
54642;DHT22;40536;53.194;5.728;2022-10-16T06:43:20;12.60;99.90
54642;DHT22;40536;53.194;5.728;2022-10-16T06:45:53;12.50;99.90
54642;DHT22;40536;53.194;5.728;2022-10-16T06:48:19;12.50;99.90
54642;DHT22;40536;53.194;5.728;2022-10-16T06:50:58;12.50;99.90
54642;DHT22;40536;53.194;5.728;2022-10-16T06:53:24;12.40;99.90
54642;DHT22;40536;53.194;5.728;2022-10-16T06:55:50;12.40;99.90
54642;DHT22;40536;53.194;5.728;2022-10-16T06:58:16;12.50;99.90
54642;DHT22;40536;53.194;5.728;2022-10-16T07:00:41;12.50;99.90
54642;DHT22;40536;53.194;5.728;2022-10-16T07:03:07;12.60;99.90
54642;DHT22;40536;53.194;5.728;2022-10-16T07:05:38;12.60;99.90
54642;DHT22;40536;53.194;5.728;2022-10-16T07:08:04;12.70;99.90
54642;DHT22;40536;53.194;5.728;2022-10-16T07:10:31;12.70;99.90
54642;DHT22;40536;53.194;5.728;2022-10-16T07:12:56;12.60;99.90
54642;DHT22;40536;53.194;5.728;2022-10-16T07:15:22;12.60;99.90
54642;DHT22;40536;53.194;5.728;2022-10-16T07:17:48;12.60;99.90
54642;DHT22;40536;53.194;5.728;2022-10-16T07:20:14;12.60;99.90
54642;DHT22;40536;53.194;5.728;2022-10-16T07:22:39;12.60;99.90
54642;DHT22;40536;53.194;5.728;2022-10-16T07:25:05;12.70;99.90
54642;DHT22;40536;53.194;5.728;2022-10-16T07:27:31;12.90;99.90
54642;DHT22;40536;53.194;5.728;2022-10-16T07:29:57;13.00;99.90
54642;DHT22;40536;53.194;5.728;2022-10-16T07:32:22;13.10;99.90
54642;DHT22;40536;53.194;5.728;2022-10-16T07:34:49;13.10;99.90
54642;DHT22;40536;53.194;5.728;2022-10-16T07:37:14;13.10;99.90
54642;DHT22;40536;53.194;5.728;2022-10-16T07:39:40;13.10;99.90
54642;DHT22;40536;53.194;5.728;2022-10-16T07:42:06;13.20;99.90
54642;DHT22;40536;53.194;5.728;2022-10-16T07:44:33;13.30;99.90
54642;DHT22;40536;53.194;5.728;2022-10-16T07:46:58;13.20;99.90
54642;DHT22;40536;53.194;5.728;2022-10-16T07:49:24;13.30;99.90
54642;DHT22;40536;53.194;5.728;2022-10-16T07:51:50;13.40;99.90
54642;DHT22;40536;53.194;5.728;2022-10-16T07:54:18;13.40;99.90
54642;DHT22;40536;53.194;5.728;2022-10-16T07:56:44;13.50;99.90
54642;DHT22;40536;53.194;5.728;2022-10-16T07:59:10;13.50;99.90
54642;DHT22;40536;53.194;5.728;2022-10-16T08:01:35;13.40;99.90
54642;DHT22;40536;53.194;5.728;2022-10-16T08:04:01;13.40;99.90
54642;DHT22;40536;53.194;5.728;2022-10-16T08:06:27;13.40;99.90
54642;DHT22;40536;53.194;5.728;2022-10-16T08:08:52;13.40;99.90
54642;DHT22;40536;53.194;5.728;2022-10-16T08:11:18;13.40;99.90
54642;DHT22;40536;53.194;5.728;2022-10-16T08:13:44;13.30;99.90
54642;DHT22;40536;53.194;5.728;2022-10-16T08:16:10;13.40;99.90
54642;DHT22;40536;53.194;5.728;2022-10-16T08:18:37;13.70;99.90
54642;DHT22;40536;53.194;5.728;2022-10-16T08:21:04;13.60;99.90
54642;DHT22;40536;53.194;5.728;2022-10-16T08:23:30;13.60;99.90
54642;DHT22;40536;53.194;5.728;2022-10-16T08:26:03;13.80;99.90
54642;DHT22;40536;53.194;5.728;2022-10-16T08:28:29;13.80;99.90
54642;DHT22;40536;53.194;5.728;2022-10-16T08:30:54;13.80;99.90
54642;DHT22;40536;53.194;5.728;2022-10-16T08:33:22;14.10;99.90
54642;DHT22;40536;53.194;5.728;2022-10-16T08:35:54;14.00;99.90
54642;DHT22;40536;53.194;5.728;2022-10-16T08:38:20;13.80;99.90
54642;DHT22;40536;53.194;5.728;2022-10-16T08:40:46;13.80;99.90
54642;DHT22;40536;53.194;5.728;2022-10-16T08:43:41;14.10;99.90
54642;DHT22;40536;53.194;5.728;2022-10-16T08:49:11;15.40;99.90
54642;DHT22;40536;53.194;5.728;2022-10-16T08:51:39;15.80;99.90
54642;DHT22;40536;53.194;5.728;2022-10-16T08:54:10;16.00;99.90
54642;DHT22;40536;53.194;5.728;2022-10-16T08:56:37;16.50;99.90
54642;DHT22;40536;53.194;5.728;2022-10-16T08:59:06;16.70;99.90
54642;DHT22;40536;53.194;5.728;2022-10-16T09:01:55;17.10;99.90
54642;DHT22;40536;53.194;5.728;2022-10-16T09:07:02;17.30;99.90
54642;DHT22;40536;53.194;5.728;2022-10-16T09:09:49;17.20;99.90
54642;DHT22;40536;53.194;5.728;2022-10-16T09:12:35;17.60;99.90
54642;DHT22;40536;53.194;5.728;2022-10-16T09:25:31;17.20;99.90
54642;DHT22;40536;53.194;5.728;2022-10-16T09:27:58;16.90;99.90
54642;DHT22;40536;53.194;5.728;2022-10-16T09:30:27;16.70;99.90
54642;DHT22;40536;53.194;5.728;2022-10-16T09:32:55;17.20;99.90
54642;DHT22;40536;53.194;5.728;2022-10-16T09:35:43;17.60;99.90
54642;DHT22;40536;53.194;5.728;2022-10-16T09:38:27;17.90;99.90
54642;DHT22;40536;53.194;5.728;2022-10-16T09:40:54;18.10;99.90
54642;DHT22;40536;53.194;5.728;2022-10-16T09:43:26;18.40;99.90
54642;DHT22;40536;53.194;5.728;2022-10-16T09:46:04;18.60;99.90
54642;DHT22;40536;53.194;5.728;2022-10-16T09:48:37;18.70;99.90
54642;DHT22;40536;53.194;5.728;2022-10-16T09:51:05;19.20;99.90
54642;DHT22;40536;53.194;5.728;2022-10-16T09:53:45;19.30;99.90
54642;DHT22;40536;53.194;5.728;2022-10-16T09:56:20;19.50;99.90
54642;DHT22;40536;53.194;5.728;2022-10-16T09:58:54;18.70;99.90
54642;DHT22;40536;53.194;5.728;2022-10-16T10:01:25;17.80;99.90
54642;DHT22;40536;53.194;5.728;2022-10-16T10:03:56;17.20;99.90
54642;DHT22;40536;53.194;5.728;2022-10-16T10:06:29;17.20;99.90
54642;DHT22;40536;53.194;5.728;2022-10-16T10:09:06;17.50;99.90
54642;DHT22;40536;53.194;5.728;2022-10-16T10:11:44;17.60;99.90
54642;DHT22;40536;53.194;5.728;2022-10-16T10:17:01;18.30;99.90
54642;DHT22;40536;53.194;5.728;2022-10-16T10:19:27;18.30;99.90
54642;DHT22;40536;53.194;5.728;2022-10-16T10:21:53;18.40;99.90
54642;DHT22;40536;53.194;5.728;2022-10-16T10:24:19;18.30;99.90
54642;DHT22;40536;53.194;5.728;2022-10-16T10:27:07;18.40;99.90
54642;DHT22;40536;53.194;5.728;2022-10-16T10:29:48;18.30;99.90
54642;DHT22;40536;53.194;5.728;2022-10-16T10:35:22;17.70;99.90
54642;DHT22;40536;53.194;5.728;2022-10-16T10:38:13;17.60;99.90
54642;DHT22;40536;53.194;5.728;2022-10-16T10:43:30;17.60;99.90
54642;DHT22;40536;53.194;5.728;2022-10-16T10:46:14;17.80;99.90
54642;DHT22;40536;53.194;5.728;2022-10-16T10:49:16;17.80;99.90
54642;DHT22;40536;53.194;5.728;2022-10-16T10:57:10;18.20;99.90
54642;DHT22;40536;53.194;5.728;2022-10-16T11:02:53;18.50;99.90
54642;DHT22;40536;53.194;5.728;2022-10-16T11:05:56;18.70;99.90
54642;DHT22;40536;53.194;5.728;2022-10-16T11:11:02;18.90;99.90
54642;DHT22;40536;53.194;5.728;2022-10-16T11:16:23;19.00;99.90
54642;DHT22;40536;53.194;5.728;2022-10-16T11:18:59;19.10;99.90
54642;DHT22;40536;53.194;5.728;2022-10-16T11:21:30;18.80;99.90
54642;DHT22;40536;53.194;5.728;2022-10-16T11:26:53;18.80;99.90
54642;DHT22;40536;53.194;5.728;2022-10-16T11:29:26;18.70;99.90
54642;DHT22;40536;53.194;5.728;2022-10-16T11:32:06;18.60;99.90
54642;DHT22;40536;53.194;5.728;2022-10-16T11:34:59;18.20;99.90
54642;DHT22;40536;53.194;5.728;2022-10-16T11:37:30;17.50;99.90
54642;DHT22;40536;53.194;5.728;2022-10-16T11:40:03;17.10;99.90
54642;DHT22;40536;53.194;5.728;2022-10-16T11:42:40;16.90;99.90
54642;DHT22;40536;53.194;5.728;2022-10-16T11:48:07;16.40;99.90
54642;DHT22;40536;53.194;5.728;2022-10-16T11:50:56;16.70;99.90
54642;DHT22;40536;53.194;5.728;2022-10-16T11:54:02;17.10;99.90
54642;DHT22;40536;53.194;5.728;2022-10-16T11:56:32;17.20;99.90
54642;DHT22;40536;53.194;5.728;2022-10-16T11:59:05;17.50;99.90
54642;DHT22;40536;53.194;5.728;2022-10-16T12:01:44;17.50;99.90
54642;DHT22;40536;53.194;5.728;2022-10-16T12:07:08;17.40;99.90
54642;DHT22;40536;53.194;5.728;2022-10-16T12:09:40;17.50;99.90
54642;DHT22;40536;53.194;5.728;2022-10-16T12:12:25;17.40;99.90
54642;DHT22;40536;53.194;5.728;2022-10-16T12:15:25;17.40;99.90
54642;DHT22;40536;53.194;5.728;2022-10-16T12:17:52;17.30;99.90
54642;DHT22;40536;53.194;5.728;2022-10-16T12:20:28;17.50;99.90
54642;DHT22;40536;53.194;5.728;2022-10-16T12:23:04;17.30;99.90
54642;DHT22;40536;53.194;5.728;2022-10-16T12:25:35;17.50;99.90
54642;DHT22;40536;53.194;5.728;2022-10-16T12:30:42;17.40;99.90
54642;DHT22;40536;53.194;5.728;2022-10-16T12:33:36;17.40;99.90
54642;DHT22;40536;53.194;5.728;2022-10-16T12:36:15;17.30;99.90
54642;DHT22;40536;53.194;5.728;2022-10-16T12:38:52;17.20;99.90
54642;DHT22;40536;53.194;5.728;2022-10-16T12:41:45;17.30;99.90
54642;DHT22;40536;53.194;5.728;2022-10-16T12:44:25;17.20;99.90
54642;DHT22;40536;53.194;5.728;2022-10-16T12:46:54;17.10;99.90
54642;DHT22;40536;53.194;5.728;2022-10-16T12:49:32;17.10;99.90
54642;DHT22;40536;53.194;5.728;2022-10-16T12:51:58;17.00;99.90
54642;DHT22;40536;53.194;5.728;2022-10-16T12:54:35;16.90;99.90
54642;DHT22;40536;53.194;5.728;2022-10-16T13:09:09;16.50;99.90
54642;DHT22;40536;53.194;5.728;2022-10-16T13:19:50;16.40;99.90
54642;DHT22;40536;53.194;5.728;2022-10-16T13:22:28;16.30;99.90
54642;DHT22;40536;53.194;5.728;2022-10-16T13:25:14;16.20;99.90
54642;DHT22;40536;53.194;5.728;2022-10-16T13:27:52;16.20;99.90
54642;DHT22;40536;53.194;5.728;2022-10-16T13:30:20;16.20;99.90
54642;DHT22;40536;53.194;5.728;2022-10-16T13:32:51;16.10;99.90
54642;DHT22;40536;53.194;5.728;2022-10-16T13:35:26;16.10;99.90
54642;DHT22;40536;53.194;5.728;2022-10-16T13:38:02;16.10;99.90
54642;DHT22;40536;53.194;5.728;2022-10-16T13:40:28;16.10;99.90
54642;DHT22;40536;53.194;5.728;2022-10-16T13:42:54;16.00;99.90
54642;DHT22;40536;53.194;5.728;2022-10-16T13:45:25;15.90;99.90
54642;DHT22;40536;53.194;5.728;2022-10-16T13:48:09;15.90;99.90
54642;DHT22;40536;53.194;5.728;2022-10-16T13:50:37;15.90;99.90
54642;DHT22;40536;53.194;5.728;2022-10-16T13:53:14;15.80;99.90
54642;DHT22;40536;53.194;5.728;2022-10-16T13:55:39;15.80;99.90
54642;DHT22;40536;53.194;5.728;2022-10-16T13:58:08;15.80;99.90
54642;DHT22;40536;53.194;5.728;2022-10-16T14:00:34;15.70;99.90
54642;DHT22;40536;53.194;5.728;2022-10-16T14:03:06;15.70;99.90
54642;DHT22;40536;53.194;5.728;2022-10-16T14:05:33;15.70;99.90
54642;DHT22;40536;53.194;5.728;2022-10-16T14:07:59;15.70;99.90
54642;DHT22;40536;53.194;5.728;2022-10-16T14:10:30;15.80;99.90
54642;DHT22;40536;53.194;5.728;2022-10-16T14:13:05;15.80;99.90
54642;DHT22;40536;53.194;5.728;2022-10-16T14:15:33;15.80;99.90
54642;DHT22;40536;53.194;5.728;2022-10-16T14:18:00;15.90;99.90
54642;DHT22;40536;53.194;5.728;2022-10-16T14:20:28;16.00;99.90
54642;DHT22;40536;53.194;5.728;2022-10-16T14:23:28;16.00;99.90
54642;DHT22;40536;53.194;5.728;2022-10-16T14:26:06;15.90;99.90
54642;DHT22;40536;53.194;5.728;2022-10-16T14:28:31;15.80;99.90
54642;DHT22;40536;53.194;5.728;2022-10-16T14:30:59;15.80;99.90
54642;DHT22;40536;53.194;5.728;2022-10-16T14:36:13;15.70;99.90
54642;DHT22;40536;53.194;5.728;2022-10-16T14:39:33;15.60;99.90
54642;DHT22;40536;53.194;5.728;2022-10-16T14:41:43;15.70;99.90
54642;DHT22;40536;53.194;5.728;2022-10-16T14:44:11;15.50;99.90
54642;DHT22;40536;53.194;5.728;2022-10-16T14:46:39;15.50;99.90
54642;DHT22;40536;53.194;5.728;2022-10-16T14:51:34;15.40;99.90
54642;DHT22;40536;53.194;5.728;2022-10-16T14:53:59;15.40;99.90
54642;DHT22;40536;53.194;5.728;2022-10-16T14:56:48;15.40;99.90
54642;DHT22;40536;53.194;5.728;2022-10-16T15:01:58;15.30;99.90
54642;DHT22;40536;53.194;5.728;2022-10-16T15:04:24;15.30;99.90
54642;DHT22;40536;53.194;5.728;2022-10-16T15:06:49;15.30;99.90
54642;DHT22;40536;53.194;5.728;2022-10-16T15:09:15;15.30;99.90
54642;DHT22;40536;53.194;5.728;2022-10-16T15:11:41;15.30;99.90
54642;DHT22;40536;53.194;5.728;2022-10-16T15:14:11;15.30;99.90
54642;DHT22;40536;53.194;5.728;2022-10-16T15:16:37;15.30;99.90
54642;DHT22;40536;53.194;5.728;2022-10-16T15:19:03;15.30;99.90
54642;DHT22;40536;53.194;5.728;2022-10-16T15:21:31;15.20;99.90
54642;DHT22;40536;53.194;5.728;2022-10-16T15:23:57;15.20;99.90
54642;DHT22;40536;53.194;5.728;2022-10-16T15:26:25;15.20;99.90
54642;DHT22;40536;53.194;5.728;2022-10-16T15:28:51;15.10;99.90
54642;DHT22;40536;53.194;5.728;2022-10-16T15:31:17;15.10;99.90
54642;DHT22;40536;53.194;5.728;2022-10-16T15:33:43;15.00;99.90
54642;DHT22;40536;53.194;5.728;2022-10-16T15:36:09;15.00;99.90
54642;DHT22;40536;53.194;5.728;2022-10-16T15:38:34;15.00;99.90
54642;DHT22;40536;53.194;5.728;2022-10-16T15:41:00;15.00;99.90
54642;DHT22;40536;53.194;5.728;2022-10-16T15:43:26;14.90;99.90
54642;DHT22;40536;53.194;5.728;2022-10-16T15:46:08;15.00;99.90
54642;DHT22;40536;53.194;5.728;2022-10-16T15:48:36;14.90;99.90
54642;DHT22;40536;53.194;5.728;2022-10-16T15:51:05;14.90;99.90
54642;DHT22;40536;53.194;5.728;2022-10-16T15:53:31;14.80;99.90
54642;DHT22;40536;53.194;5.728;2022-10-16T15:55:57;14.80;99.90
54642;DHT22;40536;53.194;5.728;2022-10-16T15:58:23;14.70;99.90
54642;DHT22;40536;53.194;5.728;2022-10-16T16:01:00;14.70;99.90
54642;DHT22;40536;53.194;5.728;2022-10-16T16:03:27;14.60;99.90
54642;DHT22;40536;53.194;5.728;2022-10-16T16:05:54;14.50;99.90
54642;DHT22;40536;53.194;5.728;2022-10-16T16:08:19;14.50;99.90
54642;DHT22;40536;53.194;5.728;2022-10-16T16:10:45;14.40;99.90
54642;DHT22;40536;53.194;5.728;2022-10-16T16:13:11;14.30;99.90
54642;DHT22;40536;53.194;5.728;2022-10-16T16:15:40;14.30;99.90
54642;DHT22;40536;53.194;5.728;2022-10-16T16:18:06;14.20;99.90
54642;DHT22;40536;53.194;5.728;2022-10-16T16:20:32;14.20;99.90
54642;DHT22;40536;53.194;5.728;2022-10-16T16:22:57;14.00;99.90
54642;DHT22;40536;53.194;5.728;2022-10-16T16:25:23;13.90;99.90
54642;DHT22;40536;53.194;5.728;2022-10-16T16:27:49;13.90;99.90
54642;DHT22;40536;53.194;5.728;2022-10-16T16:30:14;13.80;99.90
54642;DHT22;40536;53.194;5.728;2022-10-16T16:32:40;13.70;99.90
54642;DHT22;40536;53.194;5.728;2022-10-16T16:35:06;13.60;99.90
54642;DHT22;40536;53.194;5.728;2022-10-16T16:37:32;13.60;99.90
54642;DHT22;40536;53.194;5.728;2022-10-16T16:39:57;13.50;99.90
54642;DHT22;40536;53.194;5.728;2022-10-16T16:42:27;13.40;99.90
54642;DHT22;40536;53.194;5.728;2022-10-16T16:44:53;13.40;99.90
54642;DHT22;40536;53.194;5.728;2022-10-16T16:47:19;13.30;99.90
54642;DHT22;40536;53.194;5.728;2022-10-16T16:49:45;13.20;99.90
54642;DHT22;40536;53.194;5.728;2022-10-16T16:52:12;13.10;99.90
54642;DHT22;40536;53.194;5.728;2022-10-16T16:54:38;13.00;99.90
54642;DHT22;40536;53.194;5.728;2022-10-16T16:57:04;12.90;99.90
54642;DHT22;40536;53.194;5.728;2022-10-16T16:59:30;12.90;99.90
54642;DHT22;40536;53.194;5.728;2022-10-16T17:01:58;12.80;99.90
54642;DHT22;40536;53.194;5.728;2022-10-16T17:04:25;12.80;99.90
54642;DHT22;40536;53.194;5.728;2022-10-16T17:06:53;12.70;99.90
54642;DHT22;40536;53.194;5.728;2022-10-16T17:09:20;12.70;99.90
54642;DHT22;40536;53.194;5.728;2022-10-16T17:11:46;12.60;99.90
54642;DHT22;40536;53.194;5.728;2022-10-16T17:14:14;12.50;99.90
54642;DHT22;40536;53.194;5.728;2022-10-16T17:16:40;12.50;99.90
54642;DHT22;40536;53.194;5.728;2022-10-16T17:19:12;12.40;99.90
54642;DHT22;40536;53.194;5.728;2022-10-16T17:21:38;12.40;99.90